ABQ weather

Albuquerque International Sunport
Albuquerque, New Mexico, United States

Public forecast

Using degrees Fahrenheit for public forecast. Weather courtesy of forecast.io.

Current aviation weather report (METAR) for Albuquerque International Sunport

Retrieved 2019/10/21 02:52 UTC (1 hour ago):

KABQ 210252Z 36015G24KT 10SM CLR 09/M18 A3002 RMK AO2 PK WND 36027/0240 SLP128 T00941183 51017

Aviation forecast (TAF) for Albuquerque International Sunport

Retrieved 2019-10-21 00:24 UTC (4 hours ago):

TAF KABQ 202322Z 2100/2124 33020G30KT P6SM SKC FM210200 34012KT P6SM SKC FM210600 36007KT P6SM SKC FM211800 31017G27KT P6SM FEW200